WAOO/BDJ METAR and TAF weather

Enter ICAO airport designator
Station Type Date Time Source
WAOO METAR 2021/03/04 21:30 UTC NOAA

WAOO 042130Z AUTO 10003KT 070V140 9999 SCT100 24/23 Q1011


Station Type Date Time Source
WAOO Decoded METAR 2021/03/04 21:30 UTC NOAA

Station name not available
Mar 04, 2021 - 04:30 PM EST / 2021.03.04 2130 UTC
Wind: from the E (100 degrees) at 3 MPH (3 KT) (direction variable):0
Visibility: greater than 7 mile(s):0
Sky conditions: partly cloudy
Temperature: 75 F (24 C)
Dew Point: 73 F (23 C)
Relative Humidity: 94%
Pressure (altimeter): 29.85 in. Hg (1011 hPa)
ob: WAOO 042130Z AUTO 10003KT 070V140 9999 SCT100 24/23 Q1011
cycle: 21

Station Type Date Time Source
WAOO TAF 2021/03/04 12:35 UTC NOAA

TAF WAOO 041100Z 0412/0512 18007KT 9999 SCT018 PROB40
TEMPO 0418/0422 3000 RA

Example: see airport list